Lakeview, OR (97630)

4:39 AM PDT on October 01, 2014 (GMT -0700)
Agrisea's Weather Station - Northside | Change Station
CLOSE
Current Station
Personal Weather Station
Location: Lakeview, OR
Elevation: 1463 m
Nearby Weather Stations

Elev 1463 m 42.20 °N, 120.35 °W | Updated 1 minute ago

Partly Cloudy
Partly Cloudy
4.1 °C
Feels Like 4 °C
N
0.0
Wind Variable Wind from East
Gusts 0.0 km/h

Today
High -- | Low -- °C
--% Chance of Precip.
Yesterday
High -- | Low -- °C
Precip. -- mm
6:58 AM 6:42 PM
Waxing Crescent, 46% visible
Pressure 1022 hPa
Visibility 16.1 kilometers
Clouds Few 822 m
Windchill 4 °C
Dew Point -3 °C
Humidity 58%
Rainfall 0 mm
Snow Depth 0 in , 0 in , 0 in
UV 0 out of 12
Pollen 4.40 out of 12
Air Quality Not available.
Flu Activity Not available.
METAR KLKV 011115Z AUTO 01007KT 10SM FEW027 02/M01 A3019 RMK AO1

More Conditions Fewer Conditions

Pressure 1022 hPa
Visibility 16.1 kilometers
Clouds Few 822 m
Windchill 4 °C
Dew Point -3 °C
Humidity 58%
Rainfall 0 mm
Snow Depth 0 in , 0 in , 0 in
UV 0 out of 12
Pollen 4.40 out of 12
Air Quality Not available.
Flu Activity Not available.
METAR KLKV 011115Z AUTO 01007KT 10SM FEW027 02/M01 A3019 RMK AO1

More Conditions Fewer Conditions

10-Day Weather Forecast

Almanac

Astronomy

Oct. 01, 2014 Rise Set
Actual Time 6:58 AM PDT 6:42 PM PDT
Civil Twilight 6:30 AM PDT 7:10 PM PDT
Nautical Twilight 5:58 AM PDT 7:43 PM PDT
Astronomical Twilight 5:25 AM PDT 8:15 PM PDT
Moon 2:08 PM PDT No Moon Set
Length of Visible Light 12h 40m
Length of Day
11h 44m
Tomorrow will be 2m 48s shorter.
Waxing Crescent, 46% of the Moon is Illuminated
Today
Waxing Crescent
Oct 1
First Quarter
Oct 8
Full
Oct 15
Last Quarter
Oct 23
New

Today's Extremes

State Highs State Lows

Community

WunderPhotos

Upload Photos

1,757,913 photos uploaded!

Nearby

Snow Depth

Station Depth Elevation
Gerber Reservoir 0 in 4850 ft
Billie Creek Divide 0 in 5300 ft
Hogg Pass 0 in 4760 ft
Annie Springs 0 in 6020 ft
Bigelow Camp 1 in 5120 ft

Earthquake Activity

City Distance Mag. Time & Date
No recent earthquake activity has been reported nearby.
Minimum magnitude displayed is 2.5.

Coastal Water Temperatures

Place Temperature
No Stations Reporting

Nearby Weather Stations